Moriches, NY (11955)

10:32 AM EDT on August 29, 2015 (GMT -0400)
Long Island's South Shore | | Change Station
CLOSE
Current Station
Personal Weather Station
Location: Mastic Beach, NY
Elevation: 24 ft
Nearby Weather Stations

Elev 24 ft 40.78 °N, 72.83 °W | Updated 10 minutes ago

Clear
Clear
75.6 °F
Feels Like 78 °F
N
0.0
Wind Variable Wind from North
Gusts 0.0 mph

Today
High -- | Low -- °F
--% Chance of Precip.
Yesterday
High -- | Low -- °F
Precip. -- in
6:14 AM 7:28 PM
Full, 100% visible
Pressure 30.22 in
Visibility 10.0 miles
Clouds Clear
Heat Index 78 °F
Dew Point 48 °F
Humidity 37%
Rainfall Not available.
Snow Depth Not available.
UV 5 out of 12
Pollen 9.30 out of 12
Air Quality Not available.
Flu Activity Not available.
METAR KHWV 291356Z AUTO 30005KT 10SM CLR 26/13 A3022 RMK AO2 SLP232 T02610133 TSNO $
Pressure 30.22 in
Visibility 10.0 miles
Clouds Clear
Heat Index 78 °F
Dew Point 48 °F
Humidity 37%
Rainfall Not available.
Snow Depth Not available.
UV 5 out of 12
Pollen 9.30 out of 12
Air Quality Not available.
Flu Activity Not available.
METAR KHWV 291356Z AUTO 30005KT 10SM CLR 26/13 A3022 RMK AO2 SLP232 T02610133 TSNO $

10-Day Weather Forecast

×

Almanac

Astronomy

Aug. 29, 2015 Rise Set
Actual Time
Civil Twilight
Nautical Twilight
Astronomical Twilight
Moon
Length of Visible Light
Length of Day
Tomorrow will be .
, % of the Moon is Illuminated

Today's Extremes

State Highs State Lows

Community

WunderPhotos

Upload Photos

1,850,706 photos uploaded!

WunderBlogs® & News

Nearby

Air Quality

  Air Quality AQ Index Pollutant
Not available.

Snow Depth

Station Depth Elevation

Earthquake Activity

City Distance Mag. Time & Date
Minimum magnitude displayed is 2.5.

Coastal Water Temperatures

Place Temperature

Stations

Nearby Weather Stations

Station Location Temp. Windchill Dew Point Humidity Wind Precip. Elev Updated Type